sensor_id;sensor_type;location;lat;lon;timestamp;P1;durP1;ratioP1;P2;durP2;ratioP2
10811;SDS011;5458;51.496;7.334;2022-09-17T00:01:06;5.05;;;2.60;;
10811;SDS011;5458;51.496;7.334;2022-09-17T00:03:33;8.93;;;2.33;;
10811;SDS011;5458;51.496;7.334;2022-09-17T00:06:00;5.15;;;2.63;;
10811;SDS011;5458;51.496;7.334;2022-09-17T00:08:27;8.25;;;2.90;;
10811;SDS011;5458;51.496;7.334;2022-09-17T00:10:54;9.20;;;2.97;;
10811;SDS011;5458;51.496;7.334;2022-09-17T00:13:19;5.70;;;3.35;;
10811;SDS011;5458;51.496;7.334;2022-09-17T00:15:45;7.63;;;3.75;;
10811;SDS011;5458;51.496;7.334;2022-09-17T00:18:12;7.25;;;4.03;;
10811;SDS011;5458;51.496;7.334;2022-09-17T00:20:42;11.32;;;4.63;;
10811;SDS011;5458;51.496;7.334;2022-09-17T00:23:09;6.88;;;4.43;;
10811;SDS011;5458;51.496;7.334;2022-09-17T00:25:38;8.50;;;4.93;;
10811;SDS011;5458;51.496;7.334;2022-09-17T00:28:04;9.93;;;4.00;;
10811;SDS011;5458;51.496;7.334;2022-09-17T00:30:30;11.52;;;4.88;;
10811;SDS011;5458;51.496;7.334;2022-09-17T00:32:56;8.85;;;4.53;;
10811;SDS011;5458;51.496;7.334;2022-09-17T00:35:22;8.43;;;5.90;;
10811;SDS011;5458;51.496;7.334;2022-09-17T00:37:48;8.48;;;4.65;;
10811;SDS011;5458;51.496;7.334;2022-09-17T00:40:14;8.73;;;4.80;;
10811;SDS011;5458;51.496;7.334;2022-09-17T00:42:40;9.07;;;4.90;;
10811;SDS011;5458;51.496;7.334;2022-09-17T00:45:05;9.15;;;5.35;;
10811;SDS011;5458;51.496;7.334;2022-09-17T00:47:32;13.25;;;5.10;;
10811;SDS011;5458;51.496;7.334;2022-09-17T00:52:35;8.52;;;4.15;;
10811;SDS011;5458;51.496;7.334;2022-09-17T00:55:07;7.35;;;4.13;;
10811;SDS011;5458;51.496;7.334;2022-09-17T00:57:47;6.85;;;4.07;;
10811;SDS011;5458;51.496;7.334;2022-09-17T01:00:15;7.53;;;3.85;;
10811;SDS011;5458;51.496;7.334;2022-09-17T01:02:41;5.03;;;2.80;;
10811;SDS011;5458;51.496;7.334;2022-09-17T01:05:07;9.48;;;4.40;;
10811;SDS011;5458;51.496;7.334;2022-09-17T01:15:50;7.55;;;3.45;;
10811;SDS011;5458;51.496;7.334;2022-09-17T01:18:35;10.98;;;3.10;;
10811;SDS011;5458;51.496;7.334;2022-09-17T01:24:00;7.90;;;3.47;;
10811;SDS011;5458;51.496;7.334;2022-09-17T01:26:33;6.78;;;2.92;;
10811;SDS011;5458;51.496;7.334;2022-09-17T01:32:32;6.78;;;3.13;;
10811;SDS011;5458;51.496;7.334;2022-09-17T01:35:19;7.80;;;3.33;;
10811;SDS011;5458;51.496;7.334;2022-09-17T01:38:23;6.65;;;3.30;;
10811;SDS011;5458;51.496;7.334;2022-09-17T01:40:59;6.25;;;2.90;;
10811;SDS011;5458;51.496;7.334;2022-09-17T01:46:06;6.32;;;3.53;;
10811;SDS011;5458;51.496;7.334;2022-09-17T01:48:58;9.60;;;3.33;;
10811;SDS011;5458;51.496;7.334;2022-09-17T01:51:28;14.27;;;4.35;;
10811;SDS011;5458;51.496;7.334;2022-09-17T01:54:00;11.43;;;4.05;;
10811;SDS011;5458;51.496;7.334;2022-09-17T01:56:44;10.65;;;4.40;;
10811;SDS011;5458;51.496;7.334;2022-09-17T01:59:30;12.18;;;4.90;;
10811;SDS011;5458;51.496;7.334;2022-09-17T02:02:05;11.80;;;4.60;;
10811;SDS011;5458;51.496;7.334;2022-09-17T02:04:36;6.55;;;4.10;;
10811;SDS011;5458;51.496;7.334;2022-09-17T02:07:10;11.57;;;4.78;;
10811;SDS011;5458;51.496;7.334;2022-09-17T02:09:43;8.70;;;4.15;;
10811;SDS011;5458;51.496;7.334;2022-09-17T02:12:38;14.68;;;4.72;;
10811;SDS011;5458;51.496;7.334;2022-09-17T02:15:09;13.52;;;4.78;;
10811;SDS011;5458;51.496;7.334;2022-09-17T02:17:44;7.68;;;3.80;;
10811;SDS011;5458;51.496;7.334;2022-09-17T02:20:13;17.92;;;5.25;;
10811;SDS011;5458;51.496;7.334;2022-09-17T02:23:14;12.23;;;4.70;;
10811;SDS011;5458;51.496;7.334;2022-09-17T02:25:46;10.10;;;4.95;;
10811;SDS011;5458;51.496;7.334;2022-09-17T02:30:57;11.20;;;4.63;;
10811;SDS011;5458;51.496;7.334;2022-09-17T02:33:23;10.90;;;4.55;;
10811;SDS011;5458;51.496;7.334;2022-09-17T02:35:50;13.63;;;4.28;;
10811;SDS011;5458;51.496;7.334;2022-09-17T02:38:25;14.23;;;4.22;;
10811;SDS011;5458;51.496;7.334;2022-09-17T02:51:33;12.18;;;5.10;;
10811;SDS011;5458;51.496;7.334;2022-09-17T03:00:03;11.77;;;3.95;;
10811;SDS011;5458;51.496;7.334;2022-09-17T03:02:52;9.88;;;3.80;;
10811;SDS011;5458;51.496;7.334;2022-09-17T03:05:28;9.45;;;3.90;;
10811;SDS011;5458;51.496;7.334;2022-09-17T03:07:55;11.40;;;3.88;;
10811;SDS011;5458;51.496;7.334;2022-09-17T03:10:23;13.60;;;4.45;;
10811;SDS011;5458;51.496;7.334;2022-09-17T03:12:48;9.13;;;3.60;;
10811;SDS011;5458;51.496;7.334;2022-09-17T03:15:15;8.75;;;3.63;;
10811;SDS011;5458;51.496;7.334;2022-09-17T03:17:41;16.70;;;4.05;;
10811;SDS011;5458;51.496;7.334;2022-09-17T03:20:06;19.58;;;4.20;;
10811;SDS011;5458;51.496;7.334;2022-09-17T03:22:32;11.32;;;3.22;;
10811;SDS011;5458;51.496;7.334;2022-09-17T03:24:58;10.50;;;3.70;;
10811;SDS011;5458;51.496;7.334;2022-09-17T03:27:23;11.30;;;3.97;;
10811;SDS011;5458;51.496;7.334;2022-09-17T03:29:49;10.85;;;3.95;;
10811;SDS011;5458;51.496;7.334;2022-09-17T03:32:14;7.63;;;4.05;;
10811;SDS011;5458;51.496;7.334;2022-09-17T03:34:40;16.15;;;3.90;;
10811;SDS011;5458;51.496;7.334;2022-09-17T03:37:05;13.18;;;4.18;;
10811;SDS011;5458;51.496;7.334;2022-09-17T03:39:31;7.75;;;4.40;;
10811;SDS011;5458;51.496;7.334;2022-09-17T03:41:56;10.20;;;3.25;;
10811;SDS011;5458;51.496;7.334;2022-09-17T03:44:22;10.20;;;3.35;;
10811;SDS011;5458;51.496;7.334;2022-09-17T03:46:48;9.30;;;3.50;;
10811;SDS011;5458;51.496;7.334;2022-09-17T03:49:14;9.95;;;4.10;;
10811;SDS011;5458;51.496;7.334;2022-09-17T03:51:40;10.23;;;4.00;;
10811;SDS011;5458;51.496;7.334;2022-09-17T03:54:05;11.88;;;3.80;;
10811;SDS011;5458;51.496;7.334;2022-09-17T03:56:31;7.72;;;2.75;;
10811;SDS011;5458;51.496;7.334;2022-09-17T03:58:57;10.35;;;3.30;;
10811;SDS011;5458;51.496;7.334;2022-09-17T04:01:25;10.43;;;3.38;;
10811;SDS011;5458;51.496;7.334;2022-09-17T04:03:51;7.63;;;3.30;;
10811;SDS011;5458;51.496;7.334;2022-09-17T04:06:17;7.88;;;2.95;;
10811;SDS011;5458;51.496;7.334;2022-09-17T04:08:43;6.03;;;3.25;;
10811;SDS011;5458;51.496;7.334;2022-09-17T04:11:08;10.18;;;2.70;;
10811;SDS011;5458;51.496;7.334;2022-09-17T04:13:34;10.02;;;2.72;;
10811;SDS011;5458;51.496;7.334;2022-09-17T04:16:00;9.70;;;2.60;;
10811;SDS011;5458;51.496;7.334;2022-09-17T04:18:26;8.27;;;3.15;;
10811;SDS011;5458;51.496;7.334;2022-09-17T04:20:52;9.73;;;2.72;;
10811;SDS011;5458;51.496;7.334;2022-09-17T04:23:18;10.00;;;2.67;;
10811;SDS011;5458;51.496;7.334;2022-09-17T04:25:43;7.07;;;2.83;;
10811;SDS011;5458;51.496;7.334;2022-09-17T04:28:09;11.85;;;3.20;;
10811;SDS011;5458;51.496;7.334;2022-09-17T04:30:35;6.10;;;2.70;;
10811;SDS011;5458;51.496;7.334;2022-09-17T04:33:01;11.15;;;2.83;;
10811;SDS011;5458;51.496;7.334;2022-09-17T04:35:26;5.60;;;2.67;;
10811;SDS011;5458;51.496;7.334;2022-09-17T04:37:53;7.47;;;2.40;;
10811;SDS011;5458;51.496;7.334;2022-09-17T04:40:20;6.82;;;3.33;;
10811;SDS011;5458;51.496;7.334;2022-09-17T04:42:46;8.07;;;2.42;;
10811;SDS011;5458;51.496;7.334;2022-09-17T04:45:12;8.70;;;3.15;;
10811;SDS011;5458;51.496;7.334;2022-09-17T04:47:38;9.15;;;2.33;;
10811;SDS011;5458;51.496;7.334;2022-09-17T04:50:04;7.30;;;2.90;;
10811;SDS011;5458;51.496;7.334;2022-09-17T04:52:30;8.15;;;2.22;;
10811;SDS011;5458;51.496;7.334;2022-09-17T04:54:56;5.45;;;2.17;;
10811;SDS011;5458;51.496;7.334;2022-09-17T04:57:22;8.70;;;2.70;;
10811;SDS011;5458;51.496;7.334;2022-09-17T04:59:49;6.28;;;1.90;;
10811;SDS011;5458;51.496;7.334;2022-09-17T05:02:15;6.32;;;2.58;;
10811;SDS011;5458;51.496;7.334;2022-09-17T05:04:41;7.72;;;2.28;;
10811;SDS011;5458;51.496;7.334;2022-09-17T05:07:06;6.78;;;2.13;;
10811;SDS011;5458;51.496;7.334;2022-09-17T05:09:32;6.65;;;2.03;;
10811;SDS011;5458;51.496;7.334;2022-09-17T05:11:57;13.15;;;2.05;;
10811;SDS011;5458;51.496;7.334;2022-09-17T05:14:23;9.50;;;2.40;;
10811;SDS011;5458;51.496;7.334;2022-09-17T05:16:49;8.10;;;2.17;;
10811;SDS011;5458;51.496;7.334;2022-09-17T05:19:14;4.55;;;1.88;;
10811;SDS011;5458;51.496;7.334;2022-09-17T05:21:40;6.40;;;2.67;;
10811;SDS011;5458;51.496;7.334;2022-09-17T05:24:05;4.50;;;2.33;;
10811;SDS011;5458;51.496;7.334;2022-09-17T05:26:31;10.20;;;3.38;;
10811;SDS011;5458;51.496;7.334;2022-09-17T05:28:57;4.47;;;2.50;;
10811;SDS011;5458;51.496;7.334;2022-09-17T05:31:22;6.78;;;1.90;;
10811;SDS011;5458;51.496;7.334;2022-09-17T05:33:48;7.43;;;2.60;;
10811;SDS011;5458;51.496;7.334;2022-09-17T05:36:14;10.15;;;2.85;;
10811;SDS011;5458;51.496;7.334;2022-09-17T05:38:39;7.85;;;2.55;;
10811;SDS011;5458;51.496;7.334;2022-09-17T05:41:05;9.30;;;2.33;;
10811;SDS011;5458;51.496;7.334;2022-09-17T05:43:31;5.75;;;2.15;;
10811;SDS011;5458;51.496;7.334;2022-09-17T05:46:01;10.00;;;3.30;;
10811;SDS011;5458;51.496;7.334;2022-09-17T05:48:27;6.70;;;2.85;;
10811;SDS011;5458;51.496;7.334;2022-09-17T05:50:53;12.65;;;2.13;;
10811;SDS011;5458;51.496;7.334;2022-09-17T05:53:19;8.25;;;2.53;;
10811;SDS011;5458;51.496;7.334;2022-09-17T05:55:45;7.35;;;2.17;;
10811;SDS011;5458;51.496;7.334;2022-09-17T05:58:11;6.03;;;1.75;;
10811;SDS011;5458;51.496;7.334;2022-09-17T06:00:42;5.13;;;1.98;;
10811;SDS011;5458;51.496;7.334;2022-09-17T06:03:09;6.40;;;1.70;;
10811;SDS011;5458;51.496;7.334;2022-09-17T06:05:36;6.90;;;1.73;;
10811;SDS011;5458;51.496;7.334;2022-09-17T06:08:02;8.30;;;2.78;;
10811;SDS011;5458;51.496;7.334;2022-09-17T06:10:27;8.93;;;2.15;;
10811;SDS011;5458;51.496;7.334;2022-09-17T06:12:56;6.50;;;1.88;;
10811;SDS011;5458;51.496;7.334;2022-09-17T06:15:22;6.15;;;2.00;;
10811;SDS011;5458;51.496;7.334;2022-09-17T06:17:49;6.53;;;2.03;;
10811;SDS011;5458;51.496;7.334;2022-09-17T06:20:14;5.70;;;1.80;;
10811;SDS011;5458;51.496;7.334;2022-09-17T06:22:40;7.85;;;2.35;;
10811;SDS011;5458;51.496;7.334;2022-09-17T06:25:06;5.35;;;2.33;;
10811;SDS011;5458;51.496;7.334;2022-09-17T06:27:32;3.90;;;1.50;;
10811;SDS011;5458;51.496;7.334;2022-09-17T06:29:58;8.73;;;2.33;;
10811;SDS011;5458;51.496;7.334;2022-09-17T06:32:25;5.28;;;2.10;;
10811;SDS011;5458;51.496;7.334;2022-09-17T06:34:51;3.45;;;1.98;;
10811;SDS011;5458;51.496;7.334;2022-09-17T06:37:18;5.90;;;1.60;;
10811;SDS011;5458;51.496;7.334;2022-09-17T06:39:43;9.95;;;3.67;;
10811;SDS011;5458;51.496;7.334;2022-09-17T06:42:09;7.18;;;1.77;;
10811;SDS011;5458;51.496;7.334;2022-09-17T06:44:36;7.28;;;2.13;;
10811;SDS011;5458;51.496;7.334;2022-09-17T06:47:02;5.95;;;2.42;;
10811;SDS011;5458;51.496;7.334;2022-09-17T06:49:28;8.30;;;2.22;;
10811;SDS011;5458;51.496;7.334;2022-09-17T06:51:55;5.35;;;2.08;;
10811;SDS011;5458;51.496;7.334;2022-09-17T06:54:20;12.50;;;2.47;;
10811;SDS011;5458;51.496;7.334;2022-09-17T06:56:46;4.82;;;1.90;;
10811;SDS011;5458;51.496;7.334;2022-09-17T06:59:12;4.60;;;1.80;;
10811;SDS011;5458;51.496;7.334;2022-09-17T07:01:37;5.18;;;1.88;;
10811;SDS011;5458;51.496;7.334;2022-09-17T07:04:03;7.45;;;1.73;;
10811;SDS011;5458;51.496;7.334;2022-09-17T07:06:28;10.18;;;2.67;;
10811;SDS011;5458;51.496;7.334;2022-09-17T07:08:54;7.22;;;1.60;;
10811;SDS011;5458;51.496;7.334;2022-09-17T07:11:20;2.72;;;1.50;;
10811;SDS011;5458;51.496;7.334;2022-09-17T07:13:45;8.73;;;1.65;;
10811;SDS011;5458;51.496;7.334;2022-09-17T07:16:11;6.00;;;2.28;;
10811;SDS011;5458;51.496;7.334;2022-09-17T07:18:36;4.28;;;1.55;;
10811;SDS011;5458;51.496;7.334;2022-09-17T07:21:03;6.70;;;1.50;;
10811;SDS011;5458;51.496;7.334;2022-09-17T07:23:30;5.50;;;1.90;;
10811;SDS011;5458;51.496;7.334;2022-09-17T07:25:59;5.63;;;1.73;;
10811;SDS011;5458;51.496;7.334;2022-09-17T07:28:26;5.25;;;1.42;;
10811;SDS011;5458;51.496;7.334;2022-09-17T07:30:52;4.22;;;1.60;;
10811;SDS011;5458;51.496;7.334;2022-09-17T07:33:20;2.65;;;1.48;;
10811;SDS011;5458;51.496;7.334;2022-09-17T07:35:53;7.25;;;1.92;;
10811;SDS011;5458;51.496;7.334;2022-09-17T07:38:19;6.78;;;1.60;;
10811;SDS011;5458;51.496;7.334;2022-09-17T07:40:56;3.97;;;1.63;;
10811;SDS011;5458;51.496;7.334;2022-09-17T07:43:30;4.80;;;1.52;;
10811;SDS011;5458;51.496;7.334;2022-09-17T07:45:57;7.68;;;1.75;;
10811;SDS011;5458;51.496;7.334;2022-09-17T07:48:24;7.45;;;1.77;;
10811;SDS011;5458;51.496;7.334;2022-09-17T07:50:50;3.90;;;1.40;;
10811;SDS011;5458;51.496;7.334;2022-09-17T07:53:16;6.80;;;2.03;;
10811;SDS011;5458;51.496;7.334;2022-09-17T07:55:49;4.75;;;1.70;;
10811;SDS011;5458;51.496;7.334;2022-09-17T07:58:19;7.57;;;1.92;;
10811;SDS011;5458;51.496;7.334;2022-09-17T08:00:46;5.40;;;1.95;;
10811;SDS011;5458;51.496;7.334;2022-09-17T08:03:12;6.22;;;1.65;;
10811;SDS011;5458;51.496;7.334;2022-09-17T08:05:38;5.15;;;1.55;;
10811;SDS011;5458;51.496;7.334;2022-09-17T08:08:03;4.68;;;1.58;;
10811;SDS011;5458;51.496;7.334;2022-09-17T08:10:29;5.97;;;1.98;;
10811;SDS011;5458;51.496;7.334;2022-09-17T08:12:55;5.15;;;1.25;;
10811;SDS011;5458;51.496;7.334;2022-09-17T08:15:22;6.57;;;1.50;;
10811;SDS011;5458;51.496;7.334;2022-09-17T08:17:49;4.65;;;1.50;;
10811;SDS011;5458;51.496;7.334;2022-09-17T08:20:15;5.55;;;1.48;;
10811;SDS011;5458;51.496;7.334;2022-09-17T08:22:42;10.70;;;1.70;;
10811;SDS011;5458;51.496;7.334;2022-09-17T08:25:08;4.70;;;1.15;;
10811;SDS011;5458;51.496;7.334;2022-09-17T08:27:34;3.70;;;1.20;;
10811;SDS011;5458;51.496;7.334;2022-09-17T08:30:02;3.75;;;1.02;;
10811;SDS011;5458;51.496;7.334;2022-09-17T08:32:29;2.63;;;0.80;;
10811;SDS011;5458;51.496;7.334;2022-09-17T08:34:54;1.92;;;1.15;;
10811;SDS011;5458;51.496;7.334;2022-09-17T08:37:20;3.30;;;1.02;;
10811;SDS011;5458;51.496;7.334;2022-09-17T08:39:46;2.75;;;0.85;;
10811;SDS011;5458;51.496;7.334;2022-09-17T08:42:14;4.07;;;1.02;;
10811;SDS011;5458;51.496;7.334;2022-09-17T08:44:51;2.30;;;0.68;;
10811;SDS011;5458;51.496;7.334;2022-09-17T08:49:56;4.10;;;0.90;;
10811;SDS011;5458;51.496;7.334;2022-09-17T08:55:32;2.50;;;1.00;;
10811;SDS011;5458;51.496;7.334;2022-09-17T08:58:28;2.70;;;0.80;;
10811;SDS011;5458;51.496;7.334;2022-09-17T09:06:38;3.10;;;1.02;;
10811;SDS011;5458;51.496;7.334;2022-09-17T09:09:14;2.13;;;1.10;;
10811;SDS011;5458;51.496;7.334;2022-09-17T09:11:42;3.92;;;1.10;;
10811;SDS011;5458;51.496;7.334;2022-09-17T09:16:53;4.25;;;0.95;;
10811;SDS011;5458;51.496;7.334;2022-09-17T09:19:24;3.25;;;0.75;;
10811;SDS011;5458;51.496;7.334;2022-09-17T09:22:02;3.17;;;0.85;;
10811;SDS011;5458;51.496;7.334;2022-09-17T09:27:42;2.65;;;1.45;;
10811;SDS011;5458;51.496;7.334;2022-09-17T09:30:34;3.72;;;1.58;;
10811;SDS011;5458;51.496;7.334;2022-09-17T09:33:23;4.72;;;1.20;;
10811;SDS011;5458;51.496;7.334;2022-09-17T09:35:53;3.28;;;0.77;;
10811;SDS011;5458;51.496;7.334;2022-09-17T09:56:55;3.78;;;0.75;;
10811;SDS011;5458;51.496;7.334;2022-09-17T09:59:24;3.00;;;0.80;;
10811;SDS011;5458;51.496;7.334;2022-09-17T10:01:50;1.75;;;0.63;;
10811;SDS011;5458;51.496;7.334;2022-09-17T10:04:21;2.58;;;0.85;;
10811;SDS011;5458;51.496;7.334;2022-09-17T10:06:52;2.53;;;0.75;;
10811;SDS011;5458;51.496;7.334;2022-09-17T10:09:20;4.85;;;0.98;;
10811;SDS011;5458;51.496;7.334;2022-09-17T10:12:19;2.97;;;1.08;;
10811;SDS011;5458;51.496;7.334;2022-09-17T10:14:42;2.17;;;1.10;;
10811;SDS011;5458;51.496;7.334;2022-09-17T10:17:10;1.55;;;0.63;;
10811;SDS011;5458;51.496;7.334;2022-09-17T10:19:40;2.15;;;0.70;;
10811;SDS011;5458;51.496;7.334;2022-09-17T10:24:52;4.13;;;1.15;;
10811;SDS011;5458;51.496;7.334;2022-09-17T10:27:20;2.90;;;0.70;;
10811;SDS011;5458;51.496;7.334;2022-09-17T10:29:48;1.23;;;0.75;;
10811;SDS011;5458;51.496;7.334;2022-09-17T10:32:18;4.47;;;1.05;;
10811;SDS011;5458;51.496;7.334;2022-09-17T10:35:23;3.92;;;1.17;;
10811;SDS011;5458;51.496;7.334;2022-09-17T10:37:46;1.33;;;0.85;;
10811;SDS011;5458;51.496;7.334;2022-09-17T10:42:42;2.03;;;0.95;;
10811;SDS011;5458;51.496;7.334;2022-09-17T10:45:10;3.08;;;0.82;;
10811;SDS011;5458;51.496;7.334;2022-09-17T10:47:48;2.55;;;1.00;;
10811;SDS011;5458;51.496;7.334;2022-09-17T10:50:33;2.53;;;0.82;;
10811;SDS011;5458;51.496;7.334;2022-09-17T10:53:06;2.45;;;1.45;;
10811;SDS011;5458;51.496;7.334;2022-09-17T11:06:37;1.77;;;0.73;;
10811;SDS011;5458;51.496;7.334;2022-09-17T11:12:23;1.38;;;0.50;;
10811;SDS011;5458;51.496;7.334;2022-09-17T11:14:54;1.02;;;0.70;;
10811;SDS011;5458;51.496;7.334;2022-09-17T11:20:24;1.35;;;0.73;;
10811;SDS011;5458;51.496;7.334;2022-09-17T11:34:16;3.30;;;0.52;;
10811;SDS011;5458;51.496;7.334;2022-09-17T11:38:19;1.13;;;0.57;;
10811;SDS011;5458;51.496;7.334;2022-09-17T11:42:46;1.35;;;0.70;;
10811;SDS011;5458;51.496;7.334;2022-09-17T11:47:55;1.33;;;0.55;;
10811;SDS011;5458;51.496;7.334;2022-09-17T11:50:28;0.98;;;0.50;;
10811;SDS011;5458;51.496;7.334;2022-09-17T11:55:49;3.38;;;0.80;;
10811;SDS011;5458;51.496;7.334;2022-09-17T12:00:50;2.58;;;1.00;;
10811;SDS011;5458;51.496;7.334;2022-09-17T12:05:56;1.48;;;1.10;;
10811;SDS011;5458;51.496;7.334;2022-09-17T12:08:38;1.33;;;0.45;;
10811;SDS011;5458;51.496;7.334;2022-09-17T12:13:41;1.02;;;0.60;;
10811;SDS011;5458;51.496;7.334;2022-09-17T12:16:38;1.88;;;0.55;;
10811;SDS011;5458;51.496;7.334;2022-09-17T12:19:16;1.55;;;0.73;;
10811;SDS011;5458;51.496;7.334;2022-09-17T12:22:11;4.82;;;1.80;;
10811;SDS011;5458;51.496;7.334;2022-09-17T12:24:41;1.13;;;0.73;;
10811;SDS011;5458;51.496;7.334;2022-09-17T12:27:18;2.47;;;0.70;;
10811;SDS011;5458;51.496;7.334;2022-09-17T12:45:02;2.67;;;0.50;;
10811;SDS011;5458;51.496;7.334;2022-09-17T12:53:14;2.55;;;0.90;;
10811;SDS011;5458;51.496;7.334;2022-09-17T13:12:34;2.47;;;0.73;;
10811;SDS011;5458;51.496;7.334;2022-09-17T13:20:42;3.13;;;1.08;;
10811;SDS011;5458;51.496;7.334;2022-09-17T13:23:39;2.88;;;1.10;;
10811;SDS011;5458;51.496;7.334;2022-09-17T13:26:09;1.58;;;0.80;;
10811;SDS011;5458;51.496;7.334;2022-09-17T13:28:48;2.08;;;1.00;;
10811;SDS011;5458;51.496;7.334;2022-09-17T13:31:19;5.05;;;1.02;;
10811;SDS011;5458;51.496;7.334;2022-09-17T13:36:53;2.97;;;0.80;;
10811;SDS011;5458;51.496;7.334;2022-09-17T13:39:34;2.90;;;1.08;;
10811;SDS011;5458;51.496;7.334;2022-09-17T13:42:04;1.00;;;0.52;;
10811;SDS011;5458;51.496;7.334;2022-09-17T13:44:37;1.80;;;0.85;;
10811;SDS011;5458;51.496;7.334;2022-09-17T13:47:48;1.95;;;0.68;;
10811;SDS011;5458;51.496;7.334;2022-09-17T13:50:02;3.03;;;0.68;;
10811;SDS011;5458;51.496;7.334;2022-09-17T13:55:18;0.80;;;0.70;;
10811;SDS011;5458;51.496;7.334;2022-09-17T13:57:58;2.33;;;1.55;;
10811;SDS011;5458;51.496;7.334;2022-09-17T14:16:34;3.38;;;0.98;;
10811;SDS011;5458;51.496;7.334;2022-09-17T14:22:02;2.80;;;0.90;;
10811;SDS011;5458;51.496;7.334;2022-09-17T14:24:38;1.08;;;0.73;;
10811;SDS011;5458;51.496;7.334;2022-09-17T14:32:38;2.22;;;0.93;;
10811;SDS011;5458;51.496;7.334;2022-09-17T14:35:19;2.15;;;0.90;;
10811;SDS011;5458;51.496;7.334;2022-09-17T14:37:56;1.90;;;0.75;;
10811;SDS011;5458;51.496;7.334;2022-09-17T14:40:35;2.88;;;1.10;;
10811;SDS011;5458;51.496;7.334;2022-09-17T14:43:14;2.47;;;1.33;;
10811;SDS011;5458;51.496;7.334;2022-09-17T14:45:43;4.18;;;1.15;;
10811;SDS011;5458;51.496;7.334;2022-09-17T14:51:10;1.20;;;0.77;;
10811;SDS011;5458;51.496;7.334;2022-09-17T14:54:05;1.92;;;1.00;;
10811;SDS011;5458;51.496;7.334;2022-09-17T14:59:24;1.80;;;1.10;;
10811;SDS011;5458;51.496;7.334;2022-09-17T15:02:21;3.95;;;1.30;;
10811;SDS011;5458;51.496;7.334;2022-09-17T15:04:59;1.90;;;0.70;;
10811;SDS011;5458;51.496;7.334;2022-09-17T15:07:26;2.33;;;1.40;;
10811;SDS011;5458;51.496;7.334;2022-09-17T15:09:51;3.08;;;1.15;;
10811;SDS011;5458;51.496;7.334;2022-09-17T15:12:20;1.48;;;0.73;;
10811;SDS011;5458;51.496;7.334;2022-09-17T15:14:53;3.38;;;1.52;;
10811;SDS011;5458;51.496;7.334;2022-09-17T15:17:20;2.22;;;0.95;;
10811;SDS011;5458;51.496;7.334;2022-09-17T15:19:47;4.85;;;0.95;;
10811;SDS011;5458;51.496;7.334;2022-09-17T15:22:17;2.22;;;0.85;;
10811;SDS011;5458;51.496;7.334;2022-09-17T15:27:37;3.58;;;0.75;;
10811;SDS011;5458;51.496;7.334;2022-09-17T15:32:33;4.45;;;1.10;;
10811;SDS011;5458;51.496;7.334;2022-09-17T15:35:19;1.83;;;0.93;;
10811;SDS011;5458;51.496;7.334;2022-09-17T15:37:50;5.88;;;0.90;;
10811;SDS011;5458;51.496;7.334;2022-09-17T15:43:12;6.05;;;0.95;;
10811;SDS011;5458;51.496;7.334;2022-09-17T15:45:44;3.00;;;1.30;;
10811;SDS011;5458;51.496;7.334;2022-09-17T15:48:20;6.13;;;1.30;;
10811;SDS011;5458;51.496;7.334;2022-09-17T15:51:01;1.55;;;0.77;;
10811;SDS011;5458;51.496;7.334;2022-09-17T15:53:32;3.83;;;1.05;;
10811;SDS011;5458;51.496;7.334;2022-09-17T15:56:00;4.90;;;1.20;;
10811;SDS011;5458;51.496;7.334;2022-09-17T16:06:33;5.15;;;1.10;;
10811;SDS011;5458;51.496;7.334;2022-09-17T16:11:16;2.55;;;1.25;;
10811;SDS011;5458;51.496;7.334;2022-09-17T16:13:47;2.13;;;0.93;;
10811;SDS011;5458;51.496;7.334;2022-09-17T16:16:14;4.25;;;1.20;;
10811;SDS011;5458;51.496;7.334;2022-09-17T16:18:42;2.40;;;1.00;;
10811;SDS011;5458;51.496;7.334;2022-09-17T16:21:17;2.40;;;0.90;;
10811;SDS011;5458;51.496;7.334;2022-09-17T16:23:44;3.13;;;0.90;;
10811;SDS011;5458;51.496;7.334;2022-09-17T16:26:17;6.13;;;1.33;;
10811;SDS011;5458;51.496;7.334;2022-09-17T16:28:45;4.20;;;1.13;;
10811;SDS011;5458;51.496;7.334;2022-09-17T16:31:13;5.65;;;1.00;;
10811;SDS011;5458;51.496;7.334;2022-09-17T16:33:39;3.30;;;0.95;;
10811;SDS011;5458;51.496;7.334;2022-09-17T16:36:05;2.47;;;1.08;;
10811;SDS011;5458;51.496;7.334;2022-09-17T16:38:31;3.28;;;1.10;;
10811;SDS011;5458;51.496;7.334;2022-09-17T16:40:57;6.82;;;1.45;;
10811;SDS011;5458;51.496;7.334;2022-09-17T16:43:23;6.50;;;1.30;;
10811;SDS011;5458;51.496;7.334;2022-09-17T16:45:58;2.30;;;0.93;;
10811;SDS011;5458;51.496;7.334;2022-09-17T16:48:24;5.97;;;1.40;;
10811;SDS011;5458;51.496;7.334;2022-09-17T16:50:49;3.28;;;1.35;;
10811;SDS011;5458;51.496;7.334;2022-09-17T16:53:15;4.05;;;1.85;;
10811;SDS011;5458;51.496;7.334;2022-09-17T16:55:40;3.35;;;1.25;;
10811;SDS011;5458;51.496;7.334;2022-09-17T16:58:06;2.58;;;1.10;;
10811;SDS011;5458;51.496;7.334;2022-09-17T17:00:31;4.07;;;1.58;;
10811;SDS011;5458;51.496;7.334;2022-09-17T17:02:57;3.20;;;0.93;;
10811;SDS011;5458;51.496;7.334;2022-09-17T17:05:24;4.40;;;1.23;;
10811;SDS011;5458;51.496;7.334;2022-09-17T17:07:50;5.28;;;1.33;;
10811;SDS011;5458;51.496;7.334;2022-09-17T17:10:18;3.63;;;1.02;;
10811;SDS011;5458;51.496;7.334;2022-09-17T17:12:44;4.15;;;1.50;;
10811;SDS011;5458;51.496;7.334;2022-09-17T17:15:10;5.45;;;1.45;;
10811;SDS011;5458;51.496;7.334;2022-09-17T17:17:37;3.25;;;1.35;;
10811;SDS011;5458;51.496;7.334;2022-09-17T17:20:03;4.35;;;1.48;;
10811;SDS011;5458;51.496;7.334;2022-09-17T17:22:32;3.75;;;1.20;;
10811;SDS011;5458;51.496;7.334;2022-09-17T17:24:58;3.58;;;1.15;;
10811;SDS011;5458;51.496;7.334;2022-09-17T17:27:24;2.58;;;1.38;;
10811;SDS011;5458;51.496;7.334;2022-09-17T17:29:49;6.00;;;2.08;;
10811;SDS011;5458;51.496;7.334;2022-09-17T17:32:15;3.53;;;1.48;;
10811;SDS011;5458;51.496;7.334;2022-09-17T17:34:41;4.63;;;0.93;;
10811;SDS011;5458;51.496;7.334;2022-09-17T17:37:06;3.58;;;1.25;;
10811;SDS011;5458;51.496;7.334;2022-09-17T17:39:32;4.00;;;1.38;;
10811;SDS011;5458;51.496;7.334;2022-09-17T17:41:57;7.00;;;1.63;;
10811;SDS011;5458;51.496;7.334;2022-09-17T17:44:23;3.13;;;1.20;;
10811;SDS011;5458;51.496;7.334;2022-09-17T17:46:49;4.45;;;1.23;;
10811;SDS011;5458;51.496;7.334;2022-09-17T17:49:14;9.30;;;1.85;;
10811;SDS011;5458;51.496;7.334;2022-09-17T17:51:40;3.60;;;1.50;;
10811;SDS011;5458;51.496;7.334;2022-09-17T17:54:06;4.65;;;1.45;;
10811;SDS011;5458;51.496;7.334;2022-09-17T17:56:32;5.88;;;1.75;;
10811;SDS011;5458;51.496;7.334;2022-09-17T17:58:57;3.05;;;1.65;;
10811;SDS011;5458;51.496;7.334;2022-09-17T18:01:24;5.45;;;1.60;;
10811;SDS011;5458;51.496;7.334;2022-09-17T18:04:01;6.55;;;1.80;;
10811;SDS011;5458;51.496;7.334;2022-09-17T18:06:28;3.30;;;1.88;;
10811;SDS011;5458;51.496;7.334;2022-09-17T18:08:54;3.40;;;1.60;;
10811;SDS011;5458;51.496;7.334;2022-09-17T18:11:20;8.82;;;2.33;;
10811;SDS011;5458;51.496;7.334;2022-09-17T18:13:49;1.85;;;1.58;;
10811;SDS011;5458;51.496;7.334;2022-09-17T18:16:19;4.97;;;1.40;;
10811;SDS011;5458;51.496;7.334;2022-09-17T18:18:45;4.50;;;1.42;;
10811;SDS011;5458;51.496;7.334;2022-09-17T18:21:15;3.10;;;1.17;;
10811;SDS011;5458;51.496;7.334;2022-09-17T18:23:43;3.10;;;1.27;;
10811;SDS011;5458;51.496;7.334;2022-09-17T18:26:11;4.85;;;1.58;;
10811;SDS011;5458;51.496;7.334;2022-09-17T18:28:39;3.53;;;1.42;;
10811;SDS011;5458;51.496;7.334;2022-09-17T18:31:05;10.18;;;1.90;;
10811;SDS011;5458;51.496;7.334;2022-09-17T18:33:44;3.10;;;1.70;;
10811;SDS011;5458;51.496;7.334;2022-09-17T18:36:10;4.70;;;1.35;;
10811;SDS011;5458;51.496;7.334;2022-09-17T18:38:35;10.13;;;1.80;;
10811;SDS011;5458;51.496;7.334;2022-09-17T18:41:07;5.53;;;2.13;;
10811;SDS011;5458;51.496;7.334;2022-09-17T18:43:35;4.97;;;1.58;;
10811;SDS011;5458;51.496;7.334;2022-09-17T18:46:00;5.15;;;1.63;;
10811;SDS011;5458;51.496;7.334;2022-09-17T18:48:27;4.38;;;1.70;;
10811;SDS011;5458;51.496;7.334;2022-09-17T18:51:01;5.32;;;1.40;;
10811;SDS011;5458;51.496;7.334;2022-09-17T18:53:34;3.90;;;2.13;;
10811;SDS011;5458;51.496;7.334;2022-09-17T18:56:05;6.20;;;1.98;;
10811;SDS011;5458;51.496;7.334;2022-09-17T18:58:36;5.07;;;2.00;;